ADDS METAR Data INFO
IDs: Format: Raw Decoded Include TAF

Data at: 1406 UTC 24 Feb 2018

KPEX 241355Z AUTO 00000KT 10SM CLR M17/M18 A3010 RMK AO2 T11711185
KPEX 241335Z AUTO 00000KT 10SM CLR M18/M19 A3013 RMK AO2 T11821195
KPEX 241315Z AUTO 00000KT 10SM CLR M19/M20 A3013 RMK AO2 T11901205
KPEX 241255Z AUTO 00000KT 10SM CLR M20/M21 A3013 RMK AO2 T12001214
KPEX 241235Z AUTO 00000KT 10SM CLR M22/M24 A3015 RMK AO2 T12221240
KPEX 241215Z AUTO 00000KT 10SM CLR M23/M25 A3015 RMK AO2 T12281247
KPEX 241155Z AUTO 00000KT 10SM CLR M22/M24 A3015 RMK AO2 70003 T12171237 11172 21249
KPEX 241135Z AUTO 00000KT 10SM CLR M21/M22 A3015 RMK AO2 T12101225
KPEX 241115Z AUTO 00000KT 10SM CLR M17/M18 A3016 RMK AO2 T11741184
KPEX 241055Z AUTO 00000KT 10SM CLR M19/M20 A3017 RMK AO2 T11881200
KPEX 241035Z AUTO 13004KT 10SM CLR M19/M20 A3017 RMK AO2 T11941202
KPEX 241015Z AUTO 00000KT 10SM CLR M21/M22 A3018 RMK AO2 T12141224
KPEX 240955Z AUTO 00000KT 10SM CLR M22/M23 A3017 RMK AO2 T12231235
KPEX 240935Z AUTO 00000KT 10SM CLR M24/M26 A3017 RMK AO2 T12411261
KPEX 240915Z AUTO 00000KT 10SM CLR M24/M26 A3018 RMK AO2 T12361256
KPEX 240855Z AUTO 00000KT 10SM CLR M25/M27 A3019 RMK AO2 T12471268
KPEX 240835Z AUTO 00000KT 10SM CLR M23/M25 A3021 RMK AO2 T12311249
KPEX 240815Z AUTO 00000KT 10SM CLR M23/M25 A3022 RMK AO2 T12301251
KPEX 240755Z AUTO 00000KT 10SM CLR M22/M24 A3022 RMK AO2 T12191236
KPEX 240735Z AUTO 00000KT 10SM CLR M21/M22 A3023 RMK AO2 T12121225
KPEX 240715Z AUTO 00000KT 10SM CLR M20/M21 A3023 RMK AO2 T12021212
KPEX 240655Z AUTO 00000KT 10SM CLR M22/M23 A3025 RMK AO2 T12161233
KPEX 240635Z AUTO 00000KT 10SM CLR M21/M23 A3025 RMK AO2 T12131232
KPEX 240615Z AUTO 00000KT 4SM BR CLR M20/M21 A3026 RMK AO2 T11961207
KPEX 240555Z AUTO 00000KT 4SM BR CLR M19/M20 A3026 RMK AO2 T11871197 11076 21190 410201190
KPEX 240535Z AUTO 00000KT 10SM CLR M18/M19 A3027 RMK AO2 T11851194
KPEX 240515Z AUTO 26003KT 10SM CLR M17/M19 A3028 RMK AO2 T11741195
KPEX 240455Z AUTO 22003KT 10SM CLR M15/M15 A3028 RMK AO2 T11481155
KPEX 240435Z AUTO 00000KT 10SM CLR M15/M16 A3029 RMK AO2 T11541160
KPEX 240415Z AUTO 00000KT 10SM CLR M15/M16 A3029 RMK AO2 T11471159
KPEX 240355Z AUTO 31004KT 10SM CLR M14/M15 A3029 RMK AO2 T11441152
KPEX 240335Z AUTO 00000KT 10SM CLR M14/M15 A3030 RMK AO2 T11411149
KPEX 240315Z AUTO 28003KT 10SM CLR M14/M14 A3029 RMK AO2 T11361142
KPEX 240255Z AUTO 28005KT 10SM CLR M13/M13 A3029 RMK AO2 T11291135
KPEX 240235Z AUTO 27004KT 10SM CLR M12/M13 A3029 RMK AO2 T11251130
KPEX 240215Z AUTO 27005KT 10SM CLR M13/M14 A3029 RMK AO2 T11331136
KPEX 240155Z AUTO 26005KT 10SM CLR M13/M14 A3029 RMK AO2 T11351142
KPEX 240135Z AUTO 25007KT 10SM CLR M12/M13 A3028 RMK AO2 T11251130
KPEX 240115Z AUTO 27007KT 10SM CLR M11/M12 A3029 RMK AO2 T11141122
KPEX 240055Z AUTO 25006KT 10SM CLR M10/M11 A3028 RMK AO2 T10991108
KPEX 240035Z AUTO 25008KT 10SM CLR M08/M10 A3028 RMK AO2 T10851096
KPEX 240015Z AUTO 25009KT 10SM CLR M08/M09 A3026 RMK AO2 T10811093
KPEX 232355Z AUTO 26009KT 10SM CLR M07/M09 A3026 RMK AO2 60003 T10731088 11020 21073
KPEX 232335Z AUTO 25010KT 10SM CLR M06/M08 A3025 RMK AO2 T10591078
KPEX 232315Z AUTO 28006KT 10SM CLR M05/M08 A3024 RMK AO2 T10521077
KPEX 232255Z AUTO 31007KT 10SM CLR M04/M07 A3023 RMK AO2 T10411070
KPEX 232235Z AUTO 29008KT 10SM CLR M04/M07 A3022 RMK AO2 T10411070
KPEX 232215Z AUTO 26011KT 10SM CLR M04/M07 A3022 RMK AO2 T10381068
KPEX 232155Z AUTO 28013KT 10SM CLR M04/M07 A3022 RMK AO2 T10371068
KPEX 232135Z AUTO 28010KT 10SM CLR M03/M07 A3021 RMK AO2 T10351067
KPEX 232115Z AUTO 29010KT 10SM CLR M03/M06 A3021 RMK AO2 T10271063
KPEX 232055Z AUTO 28012KT 10SM CLR M02/M06 A3021 RMK AO2 60003 T10251061
KPEX 232035Z AUTO 30011KT 10SM CLR M02/M06 A3021 RMK AO2 T10251059
KPEX 232015Z AUTO 28012KT 10SM CLR M03/M06 A3021 RMK AO2 T10261058
KPEX 231955Z AUTO 29008KT 10SM CLR M02/M06 A3020 RMK AO2 T10251060
KPEX 231935Z AUTO 29011KT 10SM CLR M03/M06 A3020 RMK AO2 T10261059
KPEX 231915Z AUTO 27010KT 10SM CLR M02/M06 A3019 RMK AO2 T10221056
KPEX 231855Z AUTO 27011KT 10SM CLR M02/M05 A3019 RMK AO2 P0003 T10201055
KPEX 231835Z AUTO 28011KT 10SM CLR M02/M06 A3019 RMK AO2 P0002 T10241059
KPEX 231815Z AUTO 29009KT 10SM CLR M03/M06 A3018 RMK AO2 T10281060
KPEX 231755Z AUTO 31009KT 10SM CLR M03/M06 A3018 RMK AO2 T10291063 11028 21060
KPEX 231735Z AUTO 29009KT 10SM CLR M03/M06 A3017 RMK AO2 T10301064
KPEX 231715Z AUTO 30011G16KT 10SM CLR M03/M06 A3017 RMK AO2 T10351064
KPEX 231655Z AUTO 29012G15KT 7SM CLR M04/M06 A3016 RMK AO2 T10401065
KPEX 231635Z AUTO 29013G16KT 10SM CLR M04/M07 A3015 RMK AO2 T10451070
KPEX 231615Z AUTO 29013G17KT 7SM CLR M05/M07 A3015 RMK AO2 T10461070
KPEX 231555Z AUTO 29007KT 10SM CLR M05/M07 A3013 RMK AO2 T10511071
KPEX 231535Z AUTO 30010KT 7SM CLR M05/M07 A3013 RMK AO2 T10521070
KPEX 231515Z AUTO 29013G16KT 10SM CLR M05/M07 A3013 RMK AO2 T10531068
KPEX 231455Z AUTO 28011KT 10SM CLR M05/M07 A3013 RMK AO2 T10541067
KPEX 231435Z AUTO 28010KT 7SM CLR M06/M07 A3012 RMK AO2 T10591069
KPEX 231415Z AUTO 27010KT 10SM SCT010 SCT046 M06/M07 A3011 RMK AO2 T10601070
KPEX 231355Z AUTO 29010KT 7SM OVC008 M05/M06 A3009 RMK AO2 T10541062
KPEX 231335Z AUTO 29010G14KT 7SM OVC008 M05/M06 A3008 RMK AO2 T10511057
KPEX 231315Z AUTO 28012KT 7SM BKN006 OVC010 M05/M05 A3008 RMK AO2 T10521055
KPEX 231255Z AUTO 28008KT 10SM OVC008 M05/M05 A3006 RMK AO2 T10521055
KPEX 231235Z AUTO 28007KT 10SM OVC008 M05/M05 A3006 RMK AO2 T10521055
KPEX 231215Z AUTO 27006KT 10SM OVC008 M05/M05 A3006 RMK AO2 T10521055
KPEX 231155Z AUTO 28005KT 7SM OVC008 M05/M05 A3006 RMK AO2 T10521053 11046 21055
KPEX 231135Z AUTO 27003KT 7SM SCT007 BKN010 OVC016 M05/M06 A3006 RMK AO2 T10551056
KPEX 231115Z AUTO 27003KT 7SM BKN009 BKN015 OVC045 M05/M05 A3005 RMK AO2 T10531055
KPEX 231055Z AUTO 00000KT 7SM SCT007 BKN012 OVC018 M05/M05 A3005 RMK AO2 T10541055
KPEX 231035Z AUTO 27003KT 7SM BKN007 OVC020 M05/M05 A3006 RMK AO2 T10531054
KPEX 231015Z AUTO 00000KT 7SM BKN007 BKN012 OVC020 M05/M05 A3006 RMK AO2 T10511053
KPEX 230955Z AUTO 28004KT 5SM BR SCT007 BKN012 OVC050 M05/M05 A3006 RMK AO2 T10531055
KPEX 230935Z AUTO 00000KT 5SM UP SCT042 OVC050 M05/M05 A3006 RMK AO2 T10501052
KPEX 230915Z AUTO 00000KT 5SM -SN SCT014 BKN044 OVC050 M05/M05 A3006 RMK AO2 T10491051
KPEX 230855Z AUTO 00000KT 7SM UP SCT014 SCT019 OVC042 M05/M05 A3007 RMK AO2 T10471050
KPEX 230835Z AUTO 00000KT 5SM -SN BKN042 OVC075 M05/M05 A3008 RMK AO2 T10471050
KPEX 230815Z AUTO 12003KT 5SM -SN SCT020 BKN042 OVC090 M05/M05 A3008 RMK AO2 T10461050
KPEX 230755Z AUTO 11003KT 2 1/2SM -SN SCT007 SCT016 OVC023 M05/M05 A3008 RMK AO2 T10461050
KPEX 230735Z AUTO 09004KT 3SM -SN SCT010 BKN014 OVC028 M05/M05 A3009 RMK AO2 T10461050
KPEX 230715Z AUTO 09005KT 3SM -SN SCT009 BKN014 OVC028 M05/M05 A3010 RMK AO2 T10461050
KPEX 230655Z AUTO 09005KT 2SM -SN BKN009 OVC015 M05/M05 A3011 RMK AO2 T10461050
KPEX 230635Z AUTO 09007KT 1 1/2SM -SN OVC008 M05/M05 A3013 RMK AO2 T10471051
KPEX 230615Z AUTO 09006KT 1 1/4SM -SN OVC009 M05/M05 A3014 RMK AO2 T10481051
KPEX 230555Z AUTO 09006KT 1 1/2SM -SN OVC009 M05/M05 A3016 RMK AO2 T10501053 11050 21060 410361215
KPEX 230535Z AUTO 09007KT 1 3/4SM -SN OVC009 M05/M05 A3016 RMK AO2 T10511055
KPEX 230515Z AUTO 09006KT 1 3/4SM -SN OVC011 M05/M06 A3017 RMK AO2 T10521056
KPEX 230455Z AUTO 08006KT 1 1/2SM -SN OVC006 M05/M06 A3018 RMK AO2 T10531056
KPEX 230435Z AUTO 08005KT 3/4SM SN OVC004 M05/M06 A3020 RMK AO2 T10551057
KPEX 230415Z AUTO 08005KT 3/4SM SN OVC004 M05/M06 A3021 RMK AO2 T10551057
KPEX 230355Z AUTO 08007KT 1SM SN OVC006 M05/M06 A3023 RMK AO2 T10551059
KPEX 230335Z AUTO 08006KT 1SM SN OVC006 M05/M06 A3023 RMK AO2 T10551060
KPEX 230315Z AUTO 09006KT 1SM SN OVC006 M05/M06 A3024 RMK AO2 T10551059
KPEX 230255Z AUTO 08006KT 3/4SM SN OVC004 M06/M06 A3024 RMK AO2 T10561060
KPEX 230235Z AUTO 09009KT 1SM SN OVC006 M06/M06 A3025 RMK AO2 T10561061
KPEX 230215Z AUTO 08009KT 1SM SN OVC004 M06/M06 A3025 RMK AO2 T10561061